Time;durP1;ratioP1;P1;durP2;ratioP2;P2;SDS_P1;SDS_P2;PMS_P1;PMS_P2;Temp;Humidity;BMP_temperature;BMP_pressure;BME280_temperature;BME280_humidity;BME280_pressure;Samples;Min_cycle;Max_cycle;Signal;HPM_P1;HPM_P2
2023/05/01 00:00:14;;;;;;;1999.90;999.90;;;13.00;99.90;;;;;;5011862;28;20169;-73
2023/05/01 00:02:39;;;;;;;1999.90;999.90;;;12.90;99.90;;;;;;5011633;28;20171;-73
2023/05/01 00:05:06;;;;;;;1999.90;999.90;;;12.90;99.90;;;;;;5011785;28;20192;-73
2023/05/01 00:07:32;;;;;;;1999.90;999.90;;;12.90;99.90;;;;;;5011793;28;20168;-73
2023/05/01 00:09:57;;;;;;;1999.90;999.90;;;12.90;99.90;;;;;;5011690;28;20462;-73
2023/05/01 00:12:24;;;;;;;1999.90;999.90;;;12.90;99.90;;;;;;5011357;28;20793;-73
2023/05/01 00:14:50;;;;;;;1999.90;999.90;;;12.90;99.90;;;;;;5011702;28;20186;-73
2023/05/01 00:17:15;;;;;;;1999.90;999.90;;;12.90;99.90;;;;;;5011715;28;20475;-73
2023/05/01 00:19:41;;;;;;;1999.90;999.90;;;13.00;99.90;;;;;;5011694;28;20171;-73
2023/05/01 00:22:07;;;;;;;1999.90;999.90;;;13.00;99.90;;;;;;5011362;28;20290;-73
2023/05/01 00:24:32;;;;;;;1999.90;999.90;;;13.10;99.90;;;;;;5011610;28;20307;-73
2023/05/01 00:26:58;;;;;;;1999.90;999.90;;;13.10;99.90;;;;;;5011579;28;20184;-73
2023/05/01 00:29:24;;;;;;;1999.90;999.90;;;13.10;99.90;;;;;;5011545;28;20490;-73
2023/05/01 00:31:50;;;;;;;1999.90;999.90;;;13.00;99.90;;;;;;5011380;28;20477;-73
2023/05/01 00:34:15;;;;;;;1999.90;999.90;;;12.90;99.90;;;;;;5011507;28;20187;-73
2023/05/01 00:36:41;;;;;;;1999.90;999.90;;;12.90;99.90;;;;;;5011586;28;20162;-73
2023/05/01 00:39:07;;;;;;;1999.90;999.90;;;12.90;99.90;;;;;;5013349;28;20197;-73
2023/05/01 00:41:34;;;;;;;1999.90;999.90;;;12.90;99.90;;;;;;5014702;28;20781;-73
2023/05/01 00:43:59;;;;;;;1999.90;999.90;;;13.00;99.90;;;;;;5014913;28;20428;-73
2023/05/01 00:46:26;;;;;;;1999.90;999.90;;;13.00;99.90;;;;;;5014955;28;20408;-73
2023/05/01 00:48:52;;;;;;;1999.90;999.90;;;13.00;99.90;;;;;;5014972;28;20199;-73
2023/05/01 00:51:19;;;;;;;1999.90;999.90;;;13.00;99.90;;;;;;5014500;28;20755;-73
2023/05/01 00:53:46;;;;;;;1999.90;999.90;;;13.00;99.90;;;;;;5014813;28;20204;-73
2023/05/01 00:56:13;;;;;;;1999.90;999.90;;;12.90;99.90;;;;;;5014753;28;20410;-73
2023/05/01 00:58:39;;;;;;;1999.90;999.90;;;12.90;99.90;;;;;;5014722;28;20415;-73
2023/05/01 01:01:06;;;;;;;1999.90;999.90;;;12.90;99.90;;;;;;5014401;28;20415;-73
2023/05/01 01:03:31;;;;;;;1999.90;999.90;;;13.00;99.90;;;;;;5014533;28;20523;-73
2023/05/01 01:06:02;;;;;;;1999.90;999.90;;;12.90;99.90;;;;;;5014532;28;20492;-73
2023/05/01 01:08:32;;;;;;;1999.90;999.90;;;12.90;99.90;;;;;;5014460;28;20187;-73
2023/05/01 01:11:13;;;;;;;1999.90;999.90;;;12.90;99.90;;;;;;5014103;28;20859;-73
2023/05/01 01:13:49;;;;;;;1999.90;999.90;;;12.90;99.90;;;;;;5014337;28;20488;-73
2023/05/01 01:16:34;;;;;;;1999.90;999.90;;;13.00;99.90;;;;;;5014391;28;20411;-73
2023/05/01 01:19:13;;;;;;;1999.90;999.90;;;13.00;99.90;;;;;;5013676;28;20454;-73
2023/05/01 01:21:43;;;;;;;1999.90;999.90;;;13.00;99.90;;;;;;5013997;28;20400;-73
2023/05/01 01:24:18;;;;;;;1999.90;999.90;;;13.10;99.90;;;;;;5014201;28;20426;-73
2023/05/01 01:27:02;;;;;;;1999.90;999.90;;;13.00;99.90;;;;;;5014209;28;20496;-73
2023/05/01 01:30:01;;;;;;;1999.90;999.90;;;13.00;99.90;;;;;;5014022;28;20442;-73
2023/05/01 01:33:04;;;;;;;1999.90;999.90;;;13.00;99.90;;;;;;5013895;28;20400;-73
2023/05/01 01:35:32;;;;;;;1999.90;999.90;;;12.90;99.90;;;;;;5013963;28;20402;-73
2023/05/01 01:38:09;;;;;;;1999.90;999.90;;;12.90;99.90;;;;;;5013948;28;20397;-72
2023/05/01 01:40:42;;;;;;;1999.90;999.90;;;12.90;99.90;;;;;;5014170;28;20456;-72
2023/05/01 01:43:12;;;;;;;1999.90;999.90;;;12.70;99.90;;;;;;5014111;28;20435;-72
2023/05/01 01:45:45;;;;;;;1999.90;999.90;;;12.80;99.90;;;;;;5014068;28;20406;-72
2023/05/01 01:48:15;;;;;;;1999.90;999.90;;;12.80;99.90;;;;;;5013959;28;20408;-72
2023/05/01 01:50:42;;;;;;;1999.90;999.90;;;12.90;99.90;;;;;;5013710;28;20450;-72
2023/05/01 01:53:11;;;;;;;1999.90;999.90;;;13.00;99.90;;;;;;5013515;28;20423;-72
2023/05/01 01:55:41;;;;;;;1999.90;999.90;;;13.00;99.90;;;;;;5013928;28;20412;-72
2023/05/01 01:58:09;;;;;;;1999.90;999.90;;;13.00;99.90;;;;;;5013835;28;20486;-72
2023/05/01 02:00:35;;;;;;;1999.90;999.90;;;13.10;99.90;;;;;;5013740;28;20498;-72
2023/05/01 02:03:02;;;;;;;1999.90;999.90;;;12.80;99.90;;;;;;5013626;28;20402;-72
2023/05/01 02:05:28;;;;;;;1999.90;999.90;;;13.10;99.90;;;;;;5013677;28;20433;-72
2023/05/01 02:07:56;;;;;;;1999.90;999.90;;;13.10;99.90;;;;;;5013775;28;20498;-72
2023/05/01 02:10:23;;;;;;;1999.90;999.90;;;13.10;99.90;;;;;;5013831;28;20460;-72
2023/05/01 02:12:51;;;;;;;1999.90;999.90;;;13.20;99.90;;;;;;5013120;28;20523;-72
2023/05/01 02:15:20;;;;;;;1999.90;999.90;;;13.20;99.90;;;;;;5013624;28;20862;-72
2023/05/01 02:17:47;;;;;;;1999.90;999.90;;;13.20;99.90;;;;;;5013269;28;20406;-73
2023/05/01 02:20:14;;;;;;;1999.90;999.90;;;13.20;99.90;;;;;;5013175;28;20454;-73
2023/05/01 02:22:41;;;;;;;1999.90;999.90;;;13.30;99.90;;;;;;5012888;28;20415;-72
2023/05/01 02:25:10;;;;;;;1999.90;999.90;;;13.30;99.90;;;;;;5013186;28;20518;-73
2023/05/01 02:27:51;;;;;;;1999.90;999.90;;;13.30;99.90;;;;;;5013028;28;20407;-73
2023/05/01 02:30:17;;;;;;;1999.90;999.90;;;13.30;99.90;;;;;;5013094;28;20455;-73
2023/05/01 02:32:43;;;;;;;1999.90;999.90;;;13.20;99.90;;;;;;5012723;28;20828;-73
2023/05/01 02:35:09;;;;;;;1999.90;999.90;;;13.20;99.90;;;;;;5012839;28;20480;-73
2023/05/01 02:37:36;;;;;;;1999.90;999.90;;;13.20;99.90;;;;;;5012927;28;20408;-73
2023/05/01 02:40:03;;;;;;;1999.90;999.90;;;13.10;99.90;;;;;;5012808;28;20981;-73
2023/05/01 02:42:30;;;;;;;1999.90;999.90;;;13.20;99.90;;;;;;5012539;28;20455;-73
2023/05/01 02:45:07;;;;;;;1999.90;999.90;;;13.20;99.90;;;;;;5012768;28;20518;-73
2023/05/01 02:47:36;;;;;;;1999.90;999.90;;;13.20;99.90;;;;;;5012880;28;20780;-73
2023/05/01 02:50:03;;;;;;;1999.90;999.90;;;13.20;99.90;;;;;;5012595;28;20468;-73
2023/05/01 02:52:30;;;;;;;1999.90;999.90;;;13.20;99.90;;;;;;5012378;28;20458;-73
2023/05/01 02:54:56;;;;;;;1999.90;999.90;;;13.10;99.90;;;;;;5012467;28;20518;-73
2023/05/01 02:57:21;;;;;;;1999.90;999.90;;;13.10;99.90;;;;;;5012753;28;20432;-73
2023/05/01 02:59:47;;;;;;;1999.90;999.90;;;13.10;99.90;;;;;;5012728;28;20430;-73
2023/05/01 03:02:14;;;;;;;1999.90;999.90;;;13.10;99.90;;;;;;5011667;28;20264;-73
2023/05/01 03:04:41;;;;;;;1999.90;999.90;;;13.10;99.90;;;;;;5012401;28;20564;-73
2023/05/01 03:07:07;;;;;;;1999.90;999.90;;;13.10;99.90;;;;;;5012400;28;20581;-73
2023/05/01 03:09:32;;;;;;;1999.90;999.90;;;13.10;99.90;;;;;;5012292;28;20443;-73
2023/05/01 03:11:58;;;;;;;1999.90;999.90;;;13.10;99.90;;;;;;5011992;28;20428;-73
2023/05/01 03:14:24;;;;;;;1999.90;999.90;;;13.00;99.90;;;;;;5012232;28;20185;-73
2023/05/01 03:16:49;;;;;;;1999.90;999.90;;;13.00;99.90;;;;;;5012768;28;20180;-73
2023/05/01 03:19:15;;;;;;;1999.90;999.90;;;13.00;99.90;;;;;;5012308;28;20251;-73
2023/05/01 03:21:40;;;;;;;1999.90;999.90;;;13.00;99.90;;;;;;5011994;28;20169;-73
2023/05/01 03:24:06;;;;;;;1999.90;999.90;;;12.90;99.90;;;;;;5012034;28;20203;-73
2023/05/01 03:26:32;;;;;;;1999.90;999.90;;;12.80;99.90;;;;;;5012201;28;20167;-73
2023/05/01 03:28:58;;;;;;;1999.90;999.90;;;12.70;99.90;;;;;;5012126;28;20442;-73
2023/05/01 03:31:23;;;;;;;1999.90;999.90;;;12.60;99.90;;;;;;5011891;28;20167;-73
2023/05/01 03:33:49;;;;;;;1999.90;999.90;;;12.60;99.90;;;;;;5012061;28;20658;-73
2023/05/01 03:36:15;;;;;;;1999.90;999.90;;;12.60;99.90;;;;;;5012107;28;20665;-73
2023/05/01 03:38:41;;;;;;;1999.90;999.90;;;12.40;99.90;;;;;;5012067;28;20175;-73
2023/05/01 03:41:07;;;;;;;1999.90;999.90;;;12.30;99.90;;;;;;5011751;28;20422;-73
2023/05/01 03:43:33;;;;;;;1999.90;999.90;;;12.40;99.90;;;;;;5011917;28;20427;-73
2023/05/01 03:45:58;;;;;;;1999.90;999.90;;;12.40;99.90;;;;;;5012080;28;20468;-73
2023/05/01 03:48:24;;;;;;;1999.90;999.90;;;12.40;99.90;;;;;;5011921;28;20167;-73
2023/05/01 03:50:53;;;;;;;1999.90;999.90;;;12.30;99.90;;;;;;5011934;28;20422;-73
2023/05/01 03:53:18;;;;;;;1999.90;999.90;;;12.40;99.90;;;;;;5011796;28;20249;-73
2023/05/01 03:55:44;;;;;;;1999.90;999.90;;;12.40;99.90;;;;;;5011982;28;20445;-73
2023/05/01 03:58:09;;;;;;;1999.90;999.90;;;12.40;99.90;;;;;;5011926;28;20615;-73
2023/05/01 04:00:36;;;;;;;1999.90;999.90;;;12.40;99.90;;;;;;5011963;28;20175;-73
2023/05/01 04:03:02;;;;;;;1999.90;999.90;;;12.30;99.90;;;;;;5011630;28;20526;-73
2023/05/01 04:05:29;;;;;;;1999.90;999.90;;;12.30;99.90;;;;;;5011878;28;20478;-73
2023/05/01 04:07:55;;;;;;;1999.90;999.90;;;12.30;99.90;;;;;;5012132;28;20970;-73
2023/05/01 04:10:20;;;;;;;1999.90;999.90;;;12.30;99.90;;;;;;5011749;28;20458;-73
2023/05/01 04:12:46;;;;;;;1999.90;999.90;;;12.30;99.90;;;;;;5011846;28;20193;-73
2023/05/01 04:15:11;;;;;;;1999.90;999.90;;;12.30;99.90;;;;;;5015408;28;20285;-73
2023/05/01 04:17:37;;;;;;;1999.90;999.90;;;12.40;99.90;;;;;;5015510;28;20175;-73
2023/05/01 04:20:05;;;;;;;1999.90;999.90;;;12.40;99.90;;;;;;5015600;28;20735;-73
2023/05/01 04:22:30;;;;;;;1999.90;999.90;;;12.30;99.90;;;;;;5015199;28;20653;-73
2023/05/01 04:24:56;;;;;;;1999.90;999.90;;;12.30;99.90;;;;;;5015368;28;20430;-73
2023/05/01 04:27:22;;;;;;;1999.90;999.90;;;12.30;99.90;;;;;;5015571;28;20645;-73
2023/05/01 04:29:48;;;;;;;1999.90;999.90;;;12.20;99.90;;;;;;5015391;28;20559;-73
2023/05/01 04:32:13;;;;;;;1999.90;999.90;;;12.20;99.90;;;;;;5014981;28;20171;-73
2023/05/01 04:34:39;;;;;;;1999.90;999.90;;;12.20;99.90;;;;;;5015248;28;20195;-73
2023/05/01 04:37:07;;;;;;;1999.90;999.90;;;12.10;99.90;;;;;;5015141;28;20538;-73
2023/05/01 04:39:35;;;;;;;1999.90;999.90;;;12.10;99.90;;;;;;5015355;28;20183;-73
2023/05/01 04:42:01;;;;;;;1999.90;999.90;;;12.10;99.90;;;;;;5014912;28;20441;-73
2023/05/01 04:44:27;;;;;;;1999.90;999.90;;;12.10;99.90;;;;;;5015066;28;20837;-73
2023/05/01 04:46:52;;;;;;;1999.90;999.90;;;12.10;99.90;;;;;;5015028;28;20479;-73
2023/05/01 04:49:18;;;;;;;1999.90;999.90;;;12.10;99.90;;;;;;5014931;28;20188;-73
2023/05/01 04:51:44;;;;;;;1999.90;999.90;;;12.10;99.90;;;;;;5014674;28;20170;-73
2023/05/01 04:54:10;;;;;;;1999.90;999.90;;;12.10;99.90;;;;;;5014720;28;20201;-73
2023/05/01 04:56:36;;;;;;;1999.90;999.90;;;12.00;99.90;;;;;;5015000;28;20464;-73
2023/05/01 04:59:01;;;;;;;1999.90;999.90;;;12.00;99.90;;;;;;5014870;28;20411;-73
2023/05/01 05:01:27;;;;;;;1999.90;999.90;;;12.00;99.90;;;;;;5014440;28;20178;-73
2023/05/01 05:03:52;;;;;;;1999.90;999.90;;;12.10;99.90;;;;;;5014690;28;20191;-73
2023/05/01 05:06:18;;;;;;;1999.90;999.90;;;12.10;99.90;;;;;;5014602;28;20181;-73
2023/05/01 05:08:44;;;;;;;1999.90;999.90;;;12.10;99.90;;;;;;5014691;28;20171;-73
2023/05/01 05:11:09;;;;;;;1999.90;999.90;;;12.10;99.90;;;;;;5014220;28;20425;-73
2023/05/01 05:13:35;;;;;;;1999.90;999.90;;;12.10;99.90;;;;;;5014540;28;20602;-73
2023/05/01 05:16:01;;;;;;;1999.90;999.90;;;12.10;99.90;;;;;;5014490;28;20688;-73
2023/05/01 05:18:27;;;;;;;1999.90;999.90;;;12.20;99.90;;;;;;5014439;28;20572;-73
2023/05/01 05:20:52;;;;;;;1999.90;999.90;;;12.20;99.90;;;;;;5014287;28;20640;-73
2023/05/01 05:23:18;;;;;;;1999.90;999.90;;;12.30;99.90;;;;;;5014257;28;20187;-73
2023/05/01 05:25:43;;;;;;;1999.90;999.90;;;12.30;99.90;;;;;;5013798;28;20165;-73
2023/05/01 05:28:10;;;;;;;1999.90;999.90;;;12.30;99.90;;;;;;5014330;28;20254;-73
2023/05/01 05:30:35;;;;;;;1999.90;999.90;;;12.30;99.90;;;;;;5014194;28;20463;-73
2023/05/01 05:33:01;;;;;;;1999.90;999.90;;;12.60;99.90;;;;;;5013847;28;20415;-73
2023/05/01 05:35:27;;;;;;;1999.90;999.90;;;12.40;99.90;;;;;;5014147;28;20177;-73
2023/05/01 05:37:53;;;;;;;1999.90;999.90;;;12.40;99.90;;;;;;5014060;28;20167;-73
2023/05/01 05:40:19;;;;;;;1999.90;999.90;;;12.40;99.90;;;;;;5014042;28;20214;-73
2023/05/01 05:42:44;;;;;;;1999.90;999.90;;;12.50;99.90;;;;;;5013780;28;20399;-73
2023/05/01 05:45:10;;;;;;;1999.90;999.90;;;12.50;99.90;;;;;;5013882;28;20194;-73
2023/05/01 05:47:36;;;;;;;1999.90;999.90;;;12.60;99.90;;;;;;5013839;28;20174;-73
2023/05/01 05:50:02;;;;;;;1999.90;999.90;;;12.60;99.90;;;;;;5014134;28;20522;-73
2023/05/01 05:52:28;;;;;;;1999.90;999.90;;;12.60;99.90;;;;;;5013675;28;20205;-73
2023/05/01 05:54:54;;;;;;;1999.90;999.90;;;12.60;99.90;;;;;;5013744;28;20451;-73
2023/05/01 05:57:19;;;;;;;1999.90;999.90;;;12.70;99.90;;;;;;5013791;28;20226;-73
2023/05/01 05:59:45;;;;;;;1999.90;999.90;;;12.70;99.90;;;;;;5013691;28;20215;-73
2023/05/01 06:02:10;;;;;;;1999.90;999.90;;;12.80;99.90;;;;;;5013325;28;20190;-73
2023/05/01 06:04:36;;;;;;;1999.90;999.90;;;12.80;99.90;;;;;;5013522;28;20206;-73
2023/05/01 06:07:01;;;;;;;1999.90;999.90;;;12.80;99.90;;;;;;5013616;28;20164;-73
2023/05/01 06:09:27;;;;;;;1999.90;999.90;;;12.80;99.90;;;;;;5013479;28;20196;-73
2023/05/01 06:11:52;;;;;;;1999.90;999.90;;;12.90;99.90;;;;;;5013160;28;20187;-73
2023/05/01 06:14:18;;;;;;;1999.90;999.90;;;13.00;99.90;;;;;;5013362;28;20192;-73
2023/05/01 06:16:44;;;;;;;1999.90;999.90;;;13.00;99.90;;;;;;5013303;28;20696;-73
2023/05/01 06:19:11;;;;;;;1999.90;999.90;;;13.00;99.90;;;;;;5013346;28;20165;-73
2023/05/01 06:21:36;;;;;;;1999.90;999.90;;;13.10;99.90;;;;;;5013010;28;20740;-73
2023/05/01 06:24:02;;;;;;;1999.90;999.90;;;13.10;99.90;;;;;;5013247;28;20422;-73
2023/05/01 06:26:28;;;;;;;1999.90;999.90;;;13.20;99.90;;;;;;5013240;28;20223;-73
2023/05/01 06:28:53;;;;;;;1999.90;999.90;;;13.30;99.90;;;;;;5013223;28;20189;-72
2023/05/01 06:31:20;;;;;;;1999.90;999.90;;;13.30;99.90;;;;;;5012965;28;20251;-73
2023/05/01 06:33:46;;;;;;;1999.90;999.90;;;13.50;99.90;;;;;;5013010;28;20452;-73
2023/05/01 06:36:11;;;;;;;1999.90;999.90;;;13.60;99.90;;;;;;5012224;28;20180;-73
2023/05/01 06:38:37;;;;;;;1999.90;999.90;;;13.80;99.90;;;;;;5012996;28;20173;-73
2023/05/01 06:41:06;;;;;;;1999.90;999.90;;;14.00;99.90;;;;;;5012672;28;20555;-73
2023/05/01 06:43:32;;;;;;;1999.90;999.90;;;14.10;99.90;;;;;;5012775;28;20549;-73
2023/05/01 06:45:57;;;;;;;1999.90;999.90;;;14.20;99.90;;;;;;5012830;28;20403;-73
2023/05/01 06:48:23;;;;;;;1999.90;999.90;;;14.30;99.90;;;;;;5012792;28;20412;-73
2023/05/01 06:50:49;;;;;;;1999.90;999.90;;;14.40;99.90;;;;;;5012623;28;20243;-73
2023/05/01 06:53:14;;;;;;;1999.90;999.90;;;14.50;99.90;;;;;;5012550;28;20216;-73
2023/05/01 06:55:40;;;;;;;1999.90;999.90;;;14.60;99.90;;;;;;5012745;28;20536;-73
2023/05/01 06:58:06;;;;;;;1999.90;999.90;;;14.60;99.90;;;;;;5012631;28;20227;-73
2023/05/01 07:00:33;;;;;;;1999.90;999.90;;;14.60;99.90;;;;;;5012487;28;20176;-73
2023/05/01 07:02:59;;;;;;;1999.90;999.90;;;14.50;99.90;;;;;;5012226;28;20413;-73
2023/05/01 07:05:24;;;;;;;1999.90;999.90;;;14.70;99.90;;;;;;5012539;28;20416;-73
2023/05/01 07:07:50;;;;;;;1999.90;999.90;;;14.70;99.90;;;;;;5012500;28;20192;-73
2023/05/01 07:10:15;;;;;;;1999.90;999.90;;;14.80;99.90;;;;;;5012487;28;20714;-73
2023/05/01 07:12:41;;;;;;;1999.90;999.90;;;15.00;99.90;;;;;;5011969;28;20185;-73
2023/05/01 07:15:07;;;;;;;1999.90;999.90;;;15.10;99.90;;;;;;5012291;28;20227;-73
2023/05/01 07:17:33;;;;;;;1999.90;999.90;;;15.10;99.90;;;;;;5012364;28;20180;-73
2023/05/01 07:20:00;;;;;;;1999.90;999.90;;;15.20;99.90;;;;;;5012410;28;20775;-73
2023/05/01 07:22:25;;;;;;;1999.90;999.90;;;15.30;99.90;;;;;;5012177;28;20836;-73
2023/05/01 07:24:51;;;;;;;1999.90;999.90;;;15.40;99.90;;;;;;5012219;28;20431;-73
2023/05/01 07:27:17;;;;;;;1999.90;999.90;;;15.50;99.90;;;;;;5012253;28;20243;-73
2023/05/01 07:29:43;;;;;;;1999.90;999.90;;;15.60;99.90;;;;;;5012183;28;20225;-73
2023/05/01 07:32:09;;;;;;;1999.90;999.90;;;15.70;99.90;;;;;;5011895;28;20204;-73
2023/05/01 07:34:34;;;;;;;1999.90;999.90;;;15.90;99.90;;;;;;5012199;28;20428;-74
2023/05/01 07:37:00;;;;;;;1999.90;999.90;;;16.00;99.90;;;;;;5012316;28;20168;-74
2023/05/01 07:39:26;;;;;;;1999.90;999.90;;;16.10;99.90;;;;;;5012464;28;20679;-73
2023/05/01 07:41:51;;;;;;;1999.90;999.90;;;16.20;99.90;;;;;;5011893;28;20419;-73
2023/05/01 07:44:17;;;;;;;1999.90;999.90;;;16.40;99.90;;;;;;5012117;28;20198;-73
2023/05/01 07:46:43;;;;;;;1999.90;999.90;;;16.60;99.90;;;;;;5012216;28;20173;-72
2023/05/01 07:49:08;;;;;;;1999.90;999.90;;;16.80;99.90;;;;;;5016020;28;20234;-73
2023/05/01 07:51:34;;;;;;;1999.90;999.90;;;17.00;99.90;;;;;;5016076;28;20174;-74
2023/05/01 07:54:03;;;;;;;1999.90;999.90;;;17.10;99.90;;;;;;5016201;28;20543;-72
2023/05/01 07:56:30;;;;;;;1999.90;999.90;;;17.30;99.90;;;;;;5016253;28;20404;-72
2023/05/01 07:58:56;;;;;;;1999.90;999.90;;;17.30;99.90;;;;;;5016460;28;20420;-72
2023/05/01 08:01:22;;;;;;;1999.90;999.90;;;17.30;99.90;;;;;;5015810;28;20414;-72
2023/05/01 08:03:47;;;;;;;1999.90;999.90;;;17.30;99.90;;;;;;5016261;28;20467;-72
2023/05/01 08:06:13;;;;;;;1999.90;999.90;;;17.40;99.90;;;;;;5016300;28;20456;-72
2023/05/01 08:08:39;;;;;;;1999.90;999.90;;;17.50;99.90;;;;;;5016300;28;20178;-72
2023/05/01 08:11:05;;;;;;;1999.90;999.90;;;17.60;99.90;;;;;;5015952;28;20219;-72
2023/05/01 08:13:30;;;;;;;1999.90;999.90;;;17.60;99.90;;;;;;5015740;28;20280;-72
2023/05/01 08:16:01;;;;;;;1999.90;999.90;;;17.70;99.90;;;;;;5016390;28;20639;-72
2023/05/01 08:18:26;;;;;;;1999.90;999.90;;;17.60;99.90;;;;;;5016052;28;20227;-72
2023/05/01 08:20:52;;;;;;;1999.90;999.90;;;17.60;99.90;;;;;;5015793;28;20416;-72
2023/05/01 08:23:17;;;;;;;1999.90;999.90;;;17.50;99.90;;;;;;5011771;28;20201;-72
2023/05/01 08:25:49;;;;;;;1999.90;999.90;;;17.40;99.90;;;;;;5012195;28;20179;-73
2023/05/01 08:28:16;;;;;;;1999.90;999.90;;;17.30;99.90;;;;;;4995325;28;20192;-73
2023/05/01 08:30:43;;;;;;;1999.90;999.90;;;17.30;99.90;;;;;;5012567;28;20447;-72
2023/05/01 08:33:08;;;;;;;1999.90;999.90;;;17.60;99.90;;;;;;5011591;28;20442;-72
2023/05/01 08:35:34;;;;;;;1999.90;999.90;;;17.40;99.90;;;;;;5011882;28;20958;-71
2023/05/01 08:38:00;;;;;;;1999.90;999.90;;;17.40;99.90;;;;;;5007480;28;20314;-73
2023/05/01 08:40:26;;;;;;;1999.90;999.90;;;17.50;99.90;;;;;;5011070;28;20283;-73
2023/05/01 08:47:54;;;;;;;1999.90;999.90;;;17.50;99.90;;;;;;5020863;23;20507;-71
2023/05/01 08:50:22;;;;;;;1999.90;999.90;;;17.60;99.90;;;;;;4993918;28;20874;-72
2023/05/01 08:52:51;;;;;;;1999.90;999.90;;;17.70;99.90;;;;;;4993702;28;20673;-72
2023/05/01 08:55:19;;;;;;;1999.90;999.90;;;17.80;99.90;;;;;;4975467;28;20426;-73
2023/05/01 08:57:46;;;;;;;1999.90;999.90;;;17.90;99.90;;;;;;4975505;28;20464;-73
2023/05/01 09:00:17;;;;;;;1999.90;999.90;;;17.90;99.90;;;;;;4973211;28;20523;-75
2023/05/01 09:02:48;;;;;;;1999.90;999.90;;;18.00;99.90;;;;;;4974087;28;20405;-74
2023/05/01 09:05:18;;;;;;;1999.90;999.90;;;18.10;99.90;;;;;;4974401;28;20496;-73
2023/05/01 09:07:45;;;;;;;1999.90;999.90;;;18.20;99.90;;;;;;4974172;28;20412;-74
2023/05/01 09:10:16;;;;;;;1999.90;999.90;;;18.40;99.90;;;;;;4974096;28;20515;-74
2023/05/01 09:12:45;;;;;;;1999.90;999.90;;;18.60;99.90;;;;;;4973635;28;20395;-74
2023/05/01 09:15:11;;;;;;;1999.90;999.90;;;18.70;99.90;;;;;;4973865;28;20430;-74
2023/05/01 09:17:38;;;;;;;1999.90;999.90;;;18.90;99.90;;;;;;4974664;28;20449;-75
2023/05/01 09:20:04;;;;;;;1999.90;999.90;;;19.20;99.90;;;;;;4974665;28;20761;-74
2023/05/01 09:22:31;;;;;;;1999.90;999.90;;;19.30;99.90;;;;;;4973638;28;20421;-74
2023/05/01 09:24:58;;;;;;;1999.90;999.90;;;19.50;99.90;;;;;;4974205;28;20520;-74
2023/05/01 09:27:25;;;;;;;1999.90;999.90;;;19.70;99.90;;;;;;4974062;28;20812;-74
2023/05/01 09:29:51;;;;;;;1999.90;999.90;;;20.00;99.90;;;;;;4973189;28;20537;-74
2023/05/01 09:32:23;;;;;;;1999.90;999.90;;;20.20;99.90;;;;;;4973274;28;20433;-74
2023/05/01 09:37:27;;;;;;;1999.90;999.90;;;20.60;99.90;;;;;;5140148;22;20460;-74
2023/05/01 09:40:07;;;;;;;1999.90;999.90;;;20.80;99.90;;;;;;5012811;28;20398;-72
2023/05/01 09:42:35;;;;;;;1999.90;999.90;;;20.70;99.90;;;;;;5011645;28;20523;-73
2023/05/01 09:45:03;;;;;;;1999.90;999.90;;;20.90;99.90;;;;;;5012016;28;20481;-74
2023/05/01 09:47:29;;;;;;;1999.90;999.90;;;20.90;99.90;;;;;;5010961;28;20414;-73
2023/05/01 09:49:56;;;;;;;1999.90;999.90;;;20.90;99.90;;;;;;5005903;28;20963;-73
2023/05/01 09:52:32;;;;;;;1999.90;999.90;;;20.70;99.90;;;;;;5012302;28;20178;-73
2023/05/01 09:55:12;;;;;;;1999.90;999.90;;;20.80;99.90;;;;;;5018887;28;20408;-72
2023/05/01 09:57:38;;;;;;;1999.90;999.90;;;20.90;99.90;;;;;;5003995;28;20440;-73
2023/05/01 10:00:07;;;;;;;1999.90;999.90;;;20.90;99.90;;;;;;5012222;28;20420;-73
2023/05/01 10:02:32;;;;;;;1999.90;999.90;;;20.90;99.90;;;;;;5012001;28;20812;-73
2023/05/01 10:04:58;;;;;;;1999.90;999.90;;;20.90;97.20;;;;;;5011329;28;20428;-73
2023/05/01 10:07:25;;;;;;;1999.90;999.90;;;21.00;94.30;;;;;;5012155;28;20211;-73
2023/05/01 10:09:51;;;;;;;1999.90;999.90;;;20.90;94.90;;;;;;5011549;28;20449;-74
2023/05/01 10:12:28;;;;;;;1999.90;999.90;;;21.00;94.50;;;;;;5010580;28;20938;-74
2023/05/01 10:14:55;;;;;;;1999.90;999.90;;;20.90;92.80;;;;;;5011397;28;20182;-74
2023/05/01 10:17:21;;;;;;;1999.90;999.90;;;20.80;92.40;;;;;;5011695;28;20414;-73
2023/05/01 10:19:47;;;;;;;1999.90;999.90;;;20.90;92.20;;;;;;5011422;28;20377;-73
2023/05/01 10:22:14;;;;;;;1999.90;999.90;;;20.80;92.60;;;;;;5011310;28;20420;-74
2023/05/01 10:24:40;;;;;;;1999.90;999.90;;;20.80;94.60;;;;;;5011179;28;21073;-74
2023/05/01 10:27:06;;;;;;;1999.90;999.90;;;20.90;92.20;;;;;;5011315;28;20480;-73
2023/05/01 10:29:35;;;;;;;1999.90;999.90;;;21.00;92.70;;;;;;5011637;28;20438;-73
2023/05/01 10:32:03;;;;;;;1999.90;999.90;;;21.10;92.90;;;;;;5011040;28;20414;-73
2023/05/01 10:34:31;;;;;;;1999.90;999.90;;;21.10;90.90;;;;;;5010532;28;20443;-74
2023/05/01 10:37:00;;;;;;;1999.90;999.90;;;21.10;94.00;;;;;;5011404;28;20435;-74
2023/05/01 10:39:30;;;;;;;1999.90;999.90;;;21.20;93.90;;;;;;5011377;28;20409;-73
2023/05/01 10:42:09;;;;;;;1999.90;999.90;;;21.30;92.80;;;;;;5010767;28;20389;-73
2023/05/01 10:44:36;;;;;;;1999.90;999.90;;;21.50;93.80;;;;;;5011033;28;20466;-73
2023/05/01 10:47:23;;;;;;;1999.90;999.90;;;21.50;90.30;;;;;;5011412;28;20468;-73
2023/05/01 10:50:09;;;;;;;1999.90;999.90;;;21.50;89.80;;;;;;5010630;28;20861;-73
2023/05/01 10:53:13;;;;;;;1999.90;999.90;;;21.50;91.00;;;;;;5010678;28;20910;-73
2023/05/01 10:55:46;;;;;;;1999.90;999.90;;;21.60;92.80;;;;;;5010951;28;20378;-73
2023/05/01 10:58:13;;;;;;;1999.90;999.90;;;21.70;91.30;;;;;;5010778;28;20911;-73
2023/05/01 11:00:39;;;;;;;1999.90;999.90;;;21.50;92.00;;;;;;5011342;28;20465;-73
2023/05/01 11:03:23;;;;;;;1999.90;999.90;;;21.20;90.70;;;;;;5013919;28;20391;-73
2023/05/01 11:06:03;;;;;;;1999.90;999.90;;;21.20;93.10;;;;;;5003950;28;20916;-74
2023/05/01 11:08:33;;;;;;;1999.90;999.90;;;21.30;91.10;;;;;;5010942;28;20515;-74
2023/05/01 11:11:24;;;;;;;1999.90;999.90;;;21.10;93.30;;;;;;5010639;28;20540;-74
2023/05/01 11:14:03;;;;;;;1999.90;999.90;;;20.60;93.40;;;;;;5010638;28;20417;-73
2023/05/01 11:16:44;;;;;;;1999.90;999.90;;;20.40;96.00;;;;;;5010659;28;20402;-73
2023/05/01 11:19:22;;;;;;;1999.90;999.90;;;20.20;96.30;;;;;;5010463;28;20385;-73
2023/05/01 11:21:48;;;;;;;1999.90;999.90;;;20.30;97.10;;;;;;5009868;28;20405;-73
2023/05/01 11:24:16;;;;;;;1999.90;999.90;;;20.40;96.80;;;;;;5010775;28;20419;-73
2023/05/01 11:26:42;;;;;;;1999.90;999.90;;;20.40;97.60;;;;;;5010036;28;20900;-73
2023/05/01 11:29:09;;;;;;;1999.90;999.90;;;20.60;99.10;;;;;;5010709;28;20439;-73
2023/05/01 11:31:35;;;;;;;1999.90;999.90;;;20.80;97.00;;;;;;5010224;28;20771;-73
2023/05/01 11:34:01;;;;;;;1999.90;999.90;;;21.10;93.40;;;;;;5010162;28;20422;-73
2023/05/01 11:36:28;;;;;;;1999.90;999.90;;;21.40;96.60;;;;;;5010099;28;20930;-73
2023/05/01 11:38:56;;;;;;;1999.90;999.90;;;21.50;97.00;;;;;;5010889;28;20429;-73
2023/05/01 11:41:23;;;;;;;1999.90;999.90;;;21.80;98.80;;;;;;5010491;28;20426;-73
2023/05/01 11:43:59;;;;;;;1999.90;999.90;;;22.00;95.50;;;;;;5011378;28;20472;-74
2023/05/01 11:46:30;;;;;;;1999.90;999.90;;;22.40;95.10;;;;;;5011101;28;20420;-74
2023/05/01 11:48:57;;;;;;;1999.90;999.90;;;22.70;91.30;;;;;;5010844;28;20800;-73
2023/05/01 11:51:27;;;;;;;1999.90;999.90;;;22.90;91.00;;;;;;5010813;28;20393;-73
2023/05/01 11:54:03;;;;;;;1999.90;999.90;;;23.20;89.60;;;;;;5011189;28;20399;-74
2023/05/01 11:56:30;;;;;;;1999.90;999.90;;;23.60;82.60;;;;;;5010360;28;20407;-73
2023/05/01 11:58:59;;;;;;;1999.90;999.90;;;24.00;80.80;;;;;;5011141;28;20410;-74
2023/05/01 12:01:39;;;;;;;1999.90;999.90;;;24.30;76.10;;;;;;5010917;28;20390;-74
2023/05/01 12:04:08;;;;;;;1999.90;999.90;;;24.60;69.60;;;;;;5010631;28;20959;-74
2023/05/01 12:06:35;;;;;;;1999.90;999.90;;;24.80;67.60;;;;;;5010813;28;21109;-74
2023/05/01 12:09:01;;;;;;;1999.90;999.90;;;25.30;69.70;;;;;;5011119;28;20728;-73